createdAt,value
2018-05-13T00:01:06.794Z,61.53
2018-05-13T00:04:19.646Z,62.25
2018-05-13T00:07:24.712Z,62.13
2018-05-13T00:10:27.452Z,62.07
2018-05-13T00:13:34.487Z,62.22
2018-05-13T00:16:37.374Z,62.22
2018-05-13T00:19:39.998Z,61.90
2018-05-13T00:22:42.620Z,62.10
2018-05-13T00:25:45.276Z,61.99
2018-05-13T00:28:47.939Z,61.88
2018-05-13T00:31:50.622Z,61.97
2018-05-13T00:34:53.194Z,62.94
2018-05-13T00:37:55.780Z,62.39
2018-05-13T00:40:58.362Z,62.36
2018-05-13T00:44:01.558Z,62.88
2018-05-13T00:47:04.109Z,63.07
2018-05-13T00:50:08.501Z,63.45
2018-05-13T00:53:11.148Z,63.85
2018-05-13T00:56:13.900Z,63.66
2018-05-13T00:59:16.619Z,63.28
2018-05-13T01:02:19.228Z,63.48
2018-05-13T01:05:21.886Z,63.66
2018-05-13T01:08:24.470Z,64.29
2018-05-13T01:11:27.102Z,64.16
2018-05-13T01:14:29.668Z,64.63
2018-05-13T01:17:32.283Z,64.80
2018-05-13T01:20:34.832Z,65.02
2018-05-13T01:23:37.389Z,65.09
2018-05-13T01:26:39.959Z,64.81
2018-05-13T01:29:42.540Z,64.26
2018-05-13T01:32:45.069Z,64.20
2018-05-13T01:35:47.622Z,64.43
2018-05-13T01:38:50.190Z,64.20
2018-05-13T01:41:52.868Z,64.96
2018-05-13T01:44:55.415Z,65.06
2018-05-13T01:47:57.976Z,64.95
2018-05-13T01:51:00.537Z,65.62
2018-05-13T01:54:03.096Z,65.54
2018-05-13T01:57:05.667Z,65.15
2018-05-13T02:00:09.168Z,65.31
2018-05-13T02:03:11.786Z,64.40
2018-05-13T02:06:14.400Z,64.60
2018-05-13T02:09:20.002Z,64.90
2018-05-13T02:12:22.687Z,64.69
2018-05-13T02:15:28.106Z,65.06
2018-05-13T02:18:30.665Z,64.49
2018-05-13T02:21:33.419Z,65.16
2018-05-13T02:24:45.354Z,64.87
2018-05-13T02:27:48.637Z,64.96
2018-05-13T02:30:53.215Z,64.95
2018-05-13T02:33:55.772Z,65.38
2018-05-13T02:36:59.191Z,65.45
2018-05-13T02:40:01.753Z,65.73
2018-05-13T02:43:04.761Z,65.45
2018-05-13T02:46:08.570Z,65.16
2018-05-13T02:49:11.161Z,65.00
2018-05-13T02:52:14.803Z,65.25
2018-05-13T02:55:17.555Z,65.35
2018-05-13T02:58:21.339Z,65.63
2018-05-13T03:01:24.824Z,65.70
2018-05-13T03:04:28.468Z,65.29
2018-05-13T03:07:31.109Z,65.77
2018-05-13T03:10:33.688Z,65.42
2018-05-13T03:13:36.285Z,65.58
2018-05-13T03:16:38.965Z,65.54
2018-05-13T03:19:41.538Z,65.48
2018-05-13T03:22:44.963Z,65.32
2018-05-13T03:25:47.649Z,65.67
2018-05-13T03:28:50.581Z,65.80
2018-05-13T03:31:53.142Z,65.58
2018-05-13T03:34:59.591Z,65.38
2018-05-13T03:38:02.162Z,65.47
2018-05-13T03:41:04.726Z,66.08
2018-05-13T03:44:07.270Z,66.08
2018-05-13T03:47:09.926Z,65.66
2018-05-13T03:50:12.431Z,65.88
2018-05-13T03:53:14.987Z,65.89
2018-05-13T03:56:17.557Z,65.34
2018-05-13T03:59:20.117Z,65.50
2018-05-13T04:02:22.720Z,65.89
2018-05-13T04:05:25.781Z,65.31
2018-05-13T04:08:48.847Z,65.24
2018-05-13T04:12:03.092Z,65.17
2018-05-13T04:15:17.350Z,65.36
2018-05-13T04:18:20.048Z,65.51
2018-05-13T04:21:22.605Z,65.31
2018-05-13T04:24:25.185Z,65.57
2018-05-13T04:27:27.754Z,66.08
2018-05-13T04:30:31.305Z,66.12
2018-05-13T04:33:33.836Z,65.88
2018-05-13T04:36:36.520Z,65.96
2018-05-13T04:39:39.089Z,65.62
2018-05-13T04:42:41.729Z,65.46
2018-05-13T04:45:44.290Z,65.96
2018-05-13T04:48:46.937Z,65.73
2018-05-13T04:51:49.509Z,65.86
2018-05-13T04:54:52.145Z,66.36
2018-05-13T04:57:54.838Z,66.40
2018-05-13T05:00:57.418Z,66.42
2018-05-13T05:03:59.978Z,66.10
2018-05-13T05:07:02.512Z,65.77
2018-05-13T05:10:05.150Z,66.18
2018-05-13T05:13:07.678Z,66.21
2018-05-13T05:16:10.174Z,65.95
2018-05-13T05:19:12.701Z,66.25
2018-05-13T05:22:15.277Z,66.01
2018-05-13T05:25:17.790Z,65.30
2018-05-13T05:28:20.414Z,65.16
2018-05-13T05:31:22.914Z,64.58
2018-05-13T05:34:25.471Z,64.36
2018-05-13T05:37:28.030Z,64.33
2018-05-13T05:40:30.529Z,64.54
2018-05-13T05:43:33.163Z,64.00
2018-05-13T05:46:35.707Z,63.70
2018-05-13T05:49:38.278Z,63.54
2018-05-13T05:52:40.876Z,63.42
2018-05-13T05:55:43.445Z,62.96
2018-05-13T05:58:46.995Z,62.77
2018-05-13T06:05:32.953Z,61.84
2018-05-13T06:08:36.875Z,61.33
2018-05-13T06:11:41.174Z,60.87
2018-05-13T09:40:36.380Z,33.54
2018-05-13T09:43:51.510Z,35.38
2018-05-13T09:46:54.097Z,33.44
2018-05-13T10:47:41.705Z,28.27
2018-05-13T10:50:49.485Z,27.66
2018-05-13T10:54:23.524Z,28.60
2018-05-13T11:06:42.039Z,26.42
2018-05-13T11:10:00.711Z,27.00
2018-05-13T11:13:03.387Z,26.62
2018-05-13T11:16:28.662Z,27.22
2018-05-13T11:30:23.339Z,26.45
2018-05-13T11:33:34.030Z,26.05
2018-05-13T11:40:17.014Z,25.92
2018-05-13T11:46:49.893Z,26.18
2018-05-13T11:50:08.972Z,25.91
2018-05-13T11:59:47.642Z,25.65
2018-05-13T12:03:02.465Z,25.35
2018-05-13T12:06:09.477Z,26.08
2018-05-13T12:09:52.294Z,25.77
2018-05-13T12:13:05.750Z,25.37
2018-05-13T12:16:09.813Z,25.21
2018-05-13T12:22:27.364Z,25.95
2018-05-13T12:34:32.395Z,24.73
2018-05-13T12:37:43.917Z,24.96
2018-05-13T12:41:01.026Z,25.02
2018-05-13T12:44:05.777Z,25.58
2018-05-13T12:47:09.654Z,24.28
2018-05-13T12:50:22.126Z,24.83
2018-05-13T12:54:05.004Z,25.92
2018-05-13T12:57:22.580Z,24.79
2018-05-13T13:03:32.119Z,25.06
2018-05-13T13:06:51.270Z,24.86
2018-05-13T13:10:08.814Z,24.82
2018-05-13T13:13:15.346Z,24.51
2018-05-13T13:16:26.956Z,24.94
2018-05-13T13:22:54.487Z,24.46
2018-05-13T13:26:03.719Z,24.26
2018-05-13T13:29:07.499Z,25.15
2018-05-13T13:32:19.045Z,24.83
2018-05-13T13:35:25.105Z,25.26
2018-05-13T13:38:31.672Z,25.14
2018-05-13T13:41:35.817Z,25.03
2018-05-13T13:44:39.138Z,23.96
2018-05-13T13:47:43.051Z,25.01
2018-05-13T13:50:45.770Z,24.52
2018-05-13T13:53:49.074Z,24.84
2018-05-13T13:56:51.866Z,24.77
2018-05-13T14:00:05.222Z,24.84
2018-05-13T14:03:12.915Z,25.53
2018-05-13T14:06:18.519Z,25.37
2018-05-13T14:09:21.385Z,24.67
2018-05-13T14:12:43.465Z,25.15
2018-05-13T14:15:47.239Z,25.56
2018-05-13T14:18:51.615Z,24.92
2018-05-13T14:21:58.341Z,24.78
2018-05-13T14:25:05.989Z,24.73
2018-05-13T14:28:16.457Z,25.88
2018-05-13T14:31:25.119Z,25.31
2018-05-13T14:34:29.194Z,25.50
2018-05-13T14:40:53.655Z,25.15
2018-05-13T14:47:26.981Z,25.29
2018-05-13T14:54:34.754Z,25.75
2018-05-13T14:57:58.531Z,24.79
2018-05-13T15:01:24.814Z,24.93
2018-05-13T15:08:15.377Z,25.55
2018-05-13T15:11:19.816Z,24.64
2018-05-13T15:17:51.705Z,24.86
2018-05-13T15:20:54.475Z,24.74
2018-05-13T15:23:58.391Z,25.68
2018-05-13T15:27:00.924Z,27.62
2018-05-13T15:30:03.475Z,26.84
2018-05-13T15:33:06.823Z,26.17
2018-05-13T15:36:09.378Z,27.37
2018-05-13T15:39:11.893Z,27.13
2018-05-13T15:42:14.469Z,28.44
2018-05-13T15:45:17.073Z,28.43
2018-05-13T15:48:21.327Z,27.30
2018-05-13T15:51:23.881Z,28.01
2018-05-13T15:54:26.405Z,28.14
2018-05-13T15:57:28.997Z,26.79
2018-05-13T16:00:31.599Z,26.96
2018-05-13T16:03:34.170Z,27.12
2018-05-13T16:06:36.774Z,26.26
2018-05-13T16:09:39.314Z,28.38
2018-05-13T16:12:41.847Z,26.75
2018-05-13T16:15:44.429Z,26.84
2018-05-13T16:18:46.956Z,29.15
2018-05-13T16:21:49.485Z,29.17
2018-05-13T16:24:52.036Z,29.09
2018-05-13T16:27:54.551Z,27.48
2018-05-13T16:30:57.196Z,28.29
2018-05-13T16:33:59.940Z,27.40
2018-05-13T16:37:02.467Z,26.90
2018-05-13T16:40:05.173Z,27.22
2018-05-13T16:43:07.722Z,27.86
2018-05-13T16:46:10.304Z,28.06
2018-05-13T16:49:12.858Z,27.90
2018-05-13T16:52:15.400Z,29.37
2018-05-13T16:55:17.957Z,27.45
2018-05-13T16:58:20.522Z,28.03
2018-05-13T17:01:23.055Z,29.08
2018-05-13T17:04:25.923Z,28.47
2018-05-13T17:07:28.609Z,28.13
2018-05-13T17:10:31.297Z,27.62
2018-05-13T17:13:33.881Z,29.75
2018-05-13T17:16:36.545Z,30.20
2018-05-13T17:19:39.104Z,28.34
2018-05-13T17:22:41.792Z,29.26
2018-05-13T17:25:44.396Z,28.24
2018-05-13T17:28:47.140Z,28.93
2018-05-13T17:31:49.720Z,28.33
2018-05-13T17:34:52.369Z,28.67
2018-05-13T17:37:55.022Z,28.56
2018-05-13T17:40:58.790Z,28.69
2018-05-13T17:44:02.422Z,28.97
2018-05-13T17:47:05.098Z,29.21
2018-05-13T17:50:08.280Z,29.17
2018-05-13T17:53:14.348Z,29.41
2018-05-13T17:56:16.950Z,29.91
2018-05-13T17:59:19.754Z,29.83
2018-05-13T18:02:22.627Z,29.99
2018-05-13T18:05:25.788Z,29.98
2018-05-13T18:08:28.624Z,30.04
2018-05-13T18:11:31.276Z,30.13
2018-05-13T18:14:34.083Z,30.58
2018-05-13T18:17:36.998Z,30.69
2018-05-13T18:20:40.272Z,30.77
2018-05-13T18:23:43.855Z,31.24
2018-05-13T18:26:47.204Z,31.65
2018-05-13T18:29:52.224Z,31.95
2018-05-13T18:32:55.102Z,31.84
2018-05-13T18:35:58.274Z,32.31
2018-05-13T18:39:03.394Z,32.57
2018-05-13T18:45:41.674Z,32.94
2018-05-13T18:48:45.498Z,33.13
2018-05-13T18:51:53.180Z,33.61
2018-05-13T18:54:56.941Z,34.37
2018-05-13T19:19:33.605Z,36.80
2018-05-13T19:29:45.360Z,38.27
2018-05-13T19:32:49.165Z,39.12
2018-05-13T19:35:51.908Z,38.71
2018-05-13T19:38:55.075Z,39.59
2018-05-13T19:41:57.990Z,39.85
2018-05-13T19:45:09.738Z,39.89
2018-05-13T19:48:18.365Z,39.92
2018-05-13T19:55:01.717Z,39.67
2018-05-13T19:58:04.418Z,40.17
2018-05-13T20:01:07.270Z,40.62
2018-05-13T20:04:09.989Z,40.43
2018-05-13T20:07:13.596Z,40.89
2018-05-13T20:10:16.495Z,40.99
2018-05-13T20:16:33.056Z,41.21
2018-05-13T20:19:46.464Z,40.99
2018-05-13T20:23:02.071Z,40.47
2018-05-13T20:26:04.766Z,41.45
2018-05-13T20:29:07.436Z,41.09
2018-05-13T20:32:12.539Z,41.78
2018-05-13T20:35:15.299Z,40.73
2018-05-13T20:38:19.058Z,41.25
2018-05-13T20:41:21.780Z,41.06
2018-05-13T20:44:33.583Z,41.29
2018-05-13T20:47:36.353Z,41.86
2018-05-13T20:50:38.993Z,41.65
2018-05-13T20:53:51.007Z,42.22
2018-05-13T20:57:07.210Z,42.17
2018-05-13T21:00:10.276Z,42.17
2018-05-13T21:03:12.857Z,42.52
2018-05-13T21:06:19.120Z,42.61
2018-05-13T21:10:48.987Z,42.04
2018-05-13T21:13:51.626Z,42.60
2018-05-13T21:16:54.209Z,42.47
2018-05-13T21:19:56.831Z,43.17
2018-05-13T21:22:59.415Z,43.23
2018-05-13T21:33:42.965Z,43.69
2018-05-13T21:36:45.525Z,43.49
2018-05-13T21:39:48.183Z,43.72
2018-05-13T21:42:50.823Z,43.96
2018-05-13T21:45:53.460Z,44.27
2018-05-13T21:48:56.072Z,44.19
2018-05-13T21:51:58.759Z,44.19
2018-05-13T21:55:01.404Z,44.22
2018-05-13T21:58:04.788Z,44.26
2018-05-13T22:01:09.799Z,44.40
2018-05-13T22:04:13.129Z,44.37
2018-05-13T22:07:15.683Z,44.50
2018-05-13T22:10:18.423Z,44.17
2018-05-13T22:13:21.057Z,44.59
2018-05-13T22:16:23.727Z,44.48
2018-05-13T22:19:26.480Z,44.49
2018-05-13T22:22:30.236Z,44.66
2018-05-13T22:25:33.950Z,44.70
2018-05-13T22:28:38.673Z,45.00
2018-05-13T22:31:44.314Z,45.16
2018-05-13T22:34:48.356Z,45.94
2018-05-13T22:48:01.247Z,45.75
2018-05-13T22:51:04.812Z,45.49
2018-05-13T22:54:08.418Z,45.38
2018-05-13T22:57:18.792Z,46.00
2018-05-13T23:00:21.384Z,45.35
2018-05-13T23:03:25.432Z,45.65
2018-05-13T23:06:30.926Z,46.21
2018-05-13T23:09:33.682Z,46.14
2018-05-13T23:12:36.854Z,46.12
2018-05-13T23:15:39.460Z,46.16
2018-05-13T23:18:42.865Z,46.26
2018-05-13T23:21:45.659Z,46.24
2018-05-13T23:24:48.271Z,46.12
2018-05-13T23:27:55.703Z,46.28
2018-05-13T23:30:58.240Z,46.15
2018-05-13T23:34:00.792Z,46.10
2018-05-13T23:37:03.359Z,46.45
2018-05-13T23:40:05.931Z,46.74
2018-05-13T23:43:08.468Z,46.92
2018-05-13T23:46:11.028Z,46.94
2018-05-13T23:49:13.583Z,46.79
2018-05-13T23:52:16.158Z,47.13
2018-05-13T23:55:18.729Z,46.70
2018-05-13T23:58:21.280Z,47.35
